sensor_id;sensor_type;location;lat;lon;timestamp;temperature;humidity
6210;DHT22;3138;52.550;13.148;2023-11-19T00:02:27;4.30;99.90
6210;DHT22;3138;52.550;13.148;2023-11-19T00:04:54;4.30;99.90
6210;DHT22;3138;52.550;13.148;2023-11-19T00:07:21;4.30;99.90
6210;DHT22;3138;52.550;13.148;2023-11-19T00:09:48;4.30;99.90
6210;DHT22;3138;52.550;13.148;2023-11-19T00:12:15;4.30;99.90
6210;DHT22;3138;52.550;13.148;2023-11-19T00:14:42;4.30;99.90
6210;DHT22;3138;52.550;13.148;2023-11-19T00:17:09;4.30;99.90
6210;DHT22;3138;52.550;13.148;2023-11-19T00:19:37;4.30;99.90
6210;DHT22;3138;52.550;13.148;2023-11-19T00:22:04;4.40;99.90
6210;DHT22;3138;52.550;13.148;2023-11-19T00:24:31;4.40;99.90
6210;DHT22;3138;52.550;13.148;2023-11-19T00:26:58;4.40;99.90
6210;DHT22;3138;52.550;13.148;2023-11-19T00:29:25;4.40;99.90
6210;DHT22;3138;52.550;13.148;2023-11-19T00:31:51;4.40;99.90
6210;DHT22;3138;52.550;13.148;2023-11-19T00:34:18;4.50;99.90
6210;DHT22;3138;52.550;13.148;2023-11-19T00:36:49;4.50;99.90
6210;DHT22;3138;52.550;13.148;2023-11-19T00:39:16;4.50;99.90
6210;DHT22;3138;52.550;13.148;2023-11-19T00:41:45;4.50;99.90
6210;DHT22;3138;52.550;13.148;2023-11-19T00:44:12;4.50;99.90
6210;DHT22;3138;52.550;13.148;2023-11-19T00:46:39;4.50;99.90
6210;DHT22;3138;52.550;13.148;2023-11-19T00:49:06;4.60;99.90
6210;DHT22;3138;52.550;13.148;2023-11-19T00:51:33;4.60;99.90
6210;DHT22;3138;52.550;13.148;2023-11-19T00:54:01;4.60;99.90
6210;DHT22;3138;52.550;13.148;2023-11-19T00:56:28;4.60;99.90
6210;DHT22;3138;52.550;13.148;2023-11-19T00:58:54;4.60;99.90
6210;DHT22;3138;52.550;13.148;2023-11-19T01:01:22;4.60;99.90
6210;DHT22;3138;52.550;13.148;2023-11-19T01:03:49;4.60;99.90
6210;DHT22;3138;52.550;13.148;2023-11-19T01:06:26;4.60;99.90
6210;DHT22;3138;52.550;13.148;2023-11-19T01:08:53;4.60;99.90
6210;DHT22;3138;52.550;13.148;2023-11-19T01:11:24;4.60;99.90
6210;DHT22;3138;52.550;13.148;2023-11-19T01:13:51;4.70;99.90
6210;DHT22;3138;52.550;13.148;2023-11-19T01:16:19;4.70;99.90
6210;DHT22;3138;52.550;13.148;2023-11-19T01:18:47;4.70;99.90
6210;DHT22;3138;52.550;13.148;2023-11-19T01:21:14;4.70;99.90
6210;DHT22;3138;52.550;13.148;2023-11-19T01:23:41;4.80;99.90
6210;DHT22;3138;52.550;13.148;2023-11-19T01:26:09;4.70;99.90
6210;DHT22;3138;52.550;13.148;2023-11-19T01:28:39;4.70;99.90
6210;DHT22;3138;52.550;13.148;2023-11-19T01:31:10;4.70;99.90
6210;DHT22;3138;52.550;13.148;2023-11-19T01:33:38;4.70;99.90
6210;DHT22;3138;52.550;13.148;2023-11-19T01:36:06;4.70;99.90
6210;DHT22;3138;52.550;13.148;2023-11-19T01:38:33;4.80;99.90
6210;DHT22;3138;52.550;13.148;2023-11-19T01:41:00;4.80;99.90
6210;DHT22;3138;52.550;13.148;2023-11-19T01:43:35;4.80;99.90
6210;DHT22;3138;52.550;13.148;2023-11-19T01:46:05;4.80;99.90
6210;DHT22;3138;52.550;13.148;2023-11-19T01:48:34;4.70;99.90
6210;DHT22;3138;52.550;13.148;2023-11-19T01:51:02;4.70;99.90
6210;DHT22;3138;52.550;13.148;2023-11-19T01:53:30;4.70;99.90
6210;DHT22;3138;52.550;13.148;2023-11-19T01:55:57;4.70;99.90
6210;DHT22;3138;52.550;13.148;2023-11-19T01:58:25;4.70;99.90
6210;DHT22;3138;52.550;13.148;2023-11-19T02:00:51;4.70;99.90
6210;DHT22;3138;52.550;13.148;2023-11-19T02:03:20;4.70;99.90
6210;DHT22;3138;52.550;13.148;2023-11-19T02:05:48;4.70;99.90
6210;DHT22;3138;52.550;13.148;2023-11-19T02:08:16;4.70;99.90
6210;DHT22;3138;52.550;13.148;2023-11-19T02:10:43;4.70;99.90
6210;DHT22;3138;52.550;13.148;2023-11-19T02:13:11;4.70;99.90
6210;DHT22;3138;52.550;13.148;2023-11-19T02:15:39;4.60;99.90
6210;DHT22;3138;52.550;13.148;2023-11-19T02:18:25;4.60;99.90
6210;DHT22;3138;52.550;13.148;2023-11-19T02:20:53;4.60;99.90
6210;DHT22;3138;52.550;13.148;2023-11-19T02:23:20;4.70;99.90
6210;DHT22;3138;52.550;13.148;2023-11-19T02:25:52;4.70;99.90
6210;DHT22;3138;52.550;13.148;2023-11-19T02:28:23;4.60;99.90
6210;DHT22;3138;52.550;13.148;2023-11-19T02:30:50;4.70;99.90
6210;DHT22;3138;52.550;13.148;2023-11-19T02:33:17;4.70;99.90
6210;DHT22;3138;52.550;13.148;2023-11-19T02:35:43;4.70;99.90
6210;DHT22;3138;52.550;13.148;2023-11-19T02:38:10;4.70;99.90
6210;DHT22;3138;52.550;13.148;2023-11-19T02:40:39;4.70;99.90
6210;DHT22;3138;52.550;13.148;2023-11-19T02:43:06;4.70;99.90
6210;DHT22;3138;52.550;13.148;2023-11-19T02:45:35;4.80;99.90
6210;DHT22;3138;52.550;13.148;2023-11-19T02:48:02;4.80;99.90
6210;DHT22;3138;52.550;13.148;2023-11-19T02:50:31;4.80;99.90
6210;DHT22;3138;52.550;13.148;2023-11-19T02:52:58;4.90;99.90
6210;DHT22;3138;52.550;13.148;2023-11-19T02:55:26;4.80;99.90
6210;DHT22;3138;52.550;13.148;2023-11-19T02:57:56;4.90;99.90
6210;DHT22;3138;52.550;13.148;2023-11-19T03:00:24;4.80;99.90
6210;DHT22;3138;52.550;13.148;2023-11-19T03:02:59;4.90;99.90
6210;DHT22;3138;52.550;13.148;2023-11-19T03:05:35;4.90;99.90
6210;DHT22;3138;52.550;13.148;2023-11-19T03:08:02;4.90;99.90
6210;DHT22;3138;52.550;13.148;2023-11-19T03:10:29;4.90;99.90
6210;DHT22;3138;52.550;13.148;2023-11-19T03:12:55;4.90;99.90
6210;DHT22;3138;52.550;13.148;2023-11-19T03:15:22;4.90;99.90
6210;DHT22;3138;52.550;13.148;2023-11-19T03:17:49;4.90;99.90
6210;DHT22;3138;52.550;13.148;2023-11-19T03:20:17;4.90;99.90
6210;DHT22;3138;52.550;13.148;2023-11-19T03:22:44;4.80;99.90
6210;DHT22;3138;52.550;13.148;2023-11-19T03:25:11;4.70;99.90
6210;DHT22;3138;52.550;13.148;2023-11-19T03:27:38;4.70;99.90
6210;DHT22;3138;52.550;13.148;2023-11-19T03:30:08;4.60;99.90
6210;DHT22;3138;52.550;13.148;2023-11-19T03:32:35;4.60;99.90
6210;DHT22;3138;52.550;13.148;2023-11-19T03:35:05;4.50;99.90
6210;DHT22;3138;52.550;13.148;2023-11-19T03:37:35;4.50;99.90
6210;DHT22;3138;52.550;13.148;2023-11-19T03:40:03;4.50;99.90
6210;DHT22;3138;52.550;13.148;2023-11-19T03:42:30;4.50;99.90
6210;DHT22;3138;52.550;13.148;2023-11-19T03:44:57;4.40;99.90
6210;DHT22;3138;52.550;13.148;2023-11-19T03:47:24;4.40;99.90
6210;DHT22;3138;52.550;13.148;2023-11-19T03:49:51;4.40;99.90
6210;DHT22;3138;52.550;13.148;2023-11-19T03:52:18;4.40;99.90
6210;DHT22;3138;52.550;13.148;2023-11-19T03:54:47;4.30;99.90
6210;DHT22;3138;52.550;13.148;2023-11-19T03:57:14;4.30;99.90
6210;DHT22;3138;52.550;13.148;2023-11-19T03:59:41;4.30;99.90
6210;DHT22;3138;52.550;13.148;2023-11-19T04:02:08;4.40;99.90
6210;DHT22;3138;52.550;13.148;2023-11-19T04:04:35;4.30;99.90
6210;DHT22;3138;52.550;13.148;2023-11-19T04:07:03;4.30;99.90
6210;DHT22;3138;52.550;13.148;2023-11-19T04:09:30;4.30;99.90
6210;DHT22;3138;52.550;13.148;2023-11-19T04:11:59;4.30;99.90
6210;DHT22;3138;52.550;13.148;2023-11-19T04:14:26;4.30;99.90
6210;DHT22;3138;52.550;13.148;2023-11-19T04:16:53;4.40;99.90
6210;DHT22;3138;52.550;13.148;2023-11-19T04:19:20;4.40;99.90
6210;DHT22;3138;52.550;13.148;2023-11-19T04:21:47;4.40;99.90
6210;DHT22;3138;52.550;13.148;2023-11-19T04:24:14;4.40;99.90
6210;DHT22;3138;52.550;13.148;2023-11-19T04:26:41;4.40;99.90
6210;DHT22;3138;52.550;13.148;2023-11-19T04:29:11;4.40;99.90
6210;DHT22;3138;52.550;13.148;2023-11-19T04:31:39;4.40;99.90
6210;DHT22;3138;52.550;13.148;2023-11-19T04:34:06;4.40;99.90
6210;DHT22;3138;52.550;13.148;2023-11-19T04:36:33;4.40;99.90
6210;DHT22;3138;52.550;13.148;2023-11-19T04:38:59;4.30;99.90
6210;DHT22;3138;52.550;13.148;2023-11-19T04:41:26;4.40;99.90
6210;DHT22;3138;52.550;13.148;2023-11-19T04:43:53;4.40;99.90
6210;DHT22;3138;52.550;13.148;2023-11-19T04:46:22;4.40;99.90
6210;DHT22;3138;52.550;13.148;2023-11-19T04:48:51;4.40;99.90
6210;DHT22;3138;52.550;13.148;2023-11-19T04:51:18;4.40;99.90
6210;DHT22;3138;52.550;13.148;2023-11-19T04:53:44;4.40;99.90
6210;DHT22;3138;52.550;13.148;2023-11-19T04:56:11;4.40;99.90
6210;DHT22;3138;52.550;13.148;2023-11-19T04:58:39;4.40;99.90
6210;DHT22;3138;52.550;13.148;2023-11-19T05:01:06;4.40;99.90
6210;DHT22;3138;52.550;13.148;2023-11-19T05:03:34;4.40;99.90
6210;DHT22;3138;52.550;13.148;2023-11-19T05:06:01;4.50;99.90
6210;DHT22;3138;52.550;13.148;2023-11-19T05:08:28;4.40;99.90
6210;DHT22;3138;52.550;13.148;2023-11-19T05:10:55;4.50;99.90
6210;DHT22;3138;52.550;13.148;2023-11-19T05:13:23;4.50;99.90
6210;DHT22;3138;52.550;13.148;2023-11-19T05:15:49;4.50;99.90
6210;DHT22;3138;52.550;13.148;2023-11-19T05:18:15;4.50;99.90
6210;DHT22;3138;52.550;13.148;2023-11-19T05:20:44;4.50;99.90
6210;DHT22;3138;52.550;13.148;2023-11-19T05:23:11;4.50;99.90
6210;DHT22;3138;52.550;13.148;2023-11-19T05:25:37;4.50;99.90
6210;DHT22;3138;52.550;13.148;2023-11-19T05:28:06;4.50;99.90
6210;DHT22;3138;52.550;13.148;2023-11-19T05:30:33;4.60;99.90
6210;DHT22;3138;52.550;13.148;2023-11-19T05:33:00;4.50;99.90
6210;DHT22;3138;52.550;13.148;2023-11-19T05:35:27;4.60;99.90
6210;DHT22;3138;52.550;13.148;2023-11-19T05:37:55;4.60;99.90
6210;DHT22;3138;52.550;13.148;2023-11-19T05:40:22;4.60;99.90
6210;DHT22;3138;52.550;13.148;2023-11-19T05:42:49;4.70;99.90
6210;DHT22;3138;52.550;13.148;2023-11-19T05:45:16;4.60;99.90
6210;DHT22;3138;52.550;13.148;2023-11-19T05:47:42;4.70;99.90
6210;DHT22;3138;52.550;13.148;2023-11-19T05:50:10;4.60;99.90
6210;DHT22;3138;52.550;13.148;2023-11-19T05:52:37;4.60;99.90
6210;DHT22;3138;52.550;13.148;2023-11-19T05:55:05;4.70;99.90
6210;DHT22;3138;52.550;13.148;2023-11-19T05:57:35;4.70;99.90
6210;DHT22;3138;52.550;13.148;2023-11-19T06:00:02;4.70;99.90
6210;DHT22;3138;52.550;13.148;2023-11-19T06:02:32;4.80;99.90
6210;DHT22;3138;52.550;13.148;2023-11-19T06:04:59;4.70;99.90
6210;DHT22;3138;52.550;13.148;2023-11-19T06:07:26;4.70;99.90
6210;DHT22;3138;52.550;13.148;2023-11-19T06:09:53;4.80;99.90
6210;DHT22;3138;52.550;13.148;2023-11-19T06:12:21;4.70;99.90
6210;DHT22;3138;52.550;13.148;2023-11-19T06:14:48;4.80;99.90
6210;DHT22;3138;52.550;13.148;2023-11-19T06:17:15;4.70;99.90
6210;DHT22;3138;52.550;13.148;2023-11-19T06:19:41;4.80;99.90
6210;DHT22;3138;52.550;13.148;2023-11-19T06:22:08;4.80;99.90
6210;DHT22;3138;52.550;13.148;2023-11-19T06:24:35;4.80;99.90
6210;DHT22;3138;52.550;13.148;2023-11-19T06:27:03;4.80;99.90
6210;DHT22;3138;52.550;13.148;2023-11-19T06:29:31;4.80;99.90
6210;DHT22;3138;52.550;13.148;2023-11-19T06:31:58;4.80;99.90
6210;DHT22;3138;52.550;13.148;2023-11-19T06:34:25;4.80;99.90
6210;DHT22;3138;52.550;13.148;2023-11-19T06:36:52;4.90;99.90
6210;DHT22;3138;52.550;13.148;2023-11-19T06:39:19;4.80;99.90
6210;DHT22;3138;52.550;13.148;2023-11-19T06:41:46;4.90;99.90
6210;DHT22;3138;52.550;13.148;2023-11-19T06:44:13;4.90;99.90
6210;DHT22;3138;52.550;13.148;2023-11-19T06:46:41;4.90;99.90
6210;DHT22;3138;52.550;13.148;2023-11-19T06:49:08;4.90;99.90
6210;DHT22;3138;52.550;13.148;2023-11-19T06:51:35;4.90;99.90
6210;DHT22;3138;52.550;13.148;2023-11-19T06:54:02;5.00;99.90
6210;DHT22;3138;52.550;13.148;2023-11-19T06:56:28;5.00;99.90
6210;DHT22;3138;52.550;13.148;2023-11-19T06:58:57;5.00;99.90
6210;DHT22;3138;52.550;13.148;2023-11-19T07:01:24;5.00;99.90
6210;DHT22;3138;52.550;13.148;2023-11-19T07:03:52;5.00;99.90
6210;DHT22;3138;52.550;13.148;2023-11-19T07:06:19;5.10;99.90
6210;DHT22;3138;52.550;13.148;2023-11-19T07:08:45;5.10;99.90
6210;DHT22;3138;52.550;13.148;2023-11-19T07:11:12;5.10;99.90
6210;DHT22;3138;52.550;13.148;2023-11-19T07:13:41;5.10;99.90
6210;DHT22;3138;52.550;13.148;2023-11-19T07:16:08;5.10;99.90
6210;DHT22;3138;52.550;13.148;2023-11-19T07:18:36;5.20;99.90
6210;DHT22;3138;52.550;13.148;2023-11-19T07:21:06;5.20;99.90
6210;DHT22;3138;52.550;13.148;2023-11-19T07:23:35;5.20;99.90
6210;DHT22;3138;52.550;13.148;2023-11-19T07:26:05;5.30;99.90
6210;DHT22;3138;52.550;13.148;2023-11-19T07:28:33;5.30;99.90
6210;DHT22;3138;52.550;13.148;2023-11-19T07:31:00;5.30;99.90
6210;DHT22;3138;52.550;13.148;2023-11-19T07:33:27;5.40;99.90
6210;DHT22;3138;52.550;13.148;2023-11-19T07:35:55;5.40;99.90
6210;DHT22;3138;52.550;13.148;2023-11-19T07:38:23;5.40;99.90
6210;DHT22;3138;52.550;13.148;2023-11-19T07:40:50;5.50;99.90
6210;DHT22;3138;52.550;13.148;2023-11-19T07:43:17;5.50;99.90
6210;DHT22;3138;52.550;13.148;2023-11-19T07:45:43;5.50;99.90
6210;DHT22;3138;52.550;13.148;2023-11-19T07:48:11;5.50;99.90
6210;DHT22;3138;52.550;13.148;2023-11-19T07:50:39;5.50;99.90
6210;DHT22;3138;52.550;13.148;2023-11-19T07:53:06;5.60;99.90
6210;DHT22;3138;52.550;13.148;2023-11-19T07:55:35;5.70;99.90
6210;DHT22;3138;52.550;13.148;2023-11-19T07:58:02;5.70;99.90
6210;DHT22;3138;52.550;13.148;2023-11-19T08:00:29;5.80;99.90
6210;DHT22;3138;52.550;13.148;2023-11-19T08:02:56;5.80;99.90
6210;DHT22;3138;52.550;13.148;2023-11-19T08:05:22;5.80;99.90
6210;DHT22;3138;52.550;13.148;2023-11-19T08:07:50;5.90;99.90
6210;DHT22;3138;52.550;13.148;2023-11-19T08:10:17;5.90;99.90
6210;DHT22;3138;52.550;13.148;2023-11-19T08:12:45;5.90;99.90
6210;DHT22;3138;52.550;13.148;2023-11-19T08:15:12;6.00;99.90
6210;DHT22;3138;52.550;13.148;2023-11-19T08:17:39;6.10;99.90
6210;DHT22;3138;52.550;13.148;2023-11-19T08:20:07;6.20;99.90
6210;DHT22;3138;52.550;13.148;2023-11-19T08:22:36;6.30;99.90
6210;DHT22;3138;52.550;13.148;2023-11-19T08:25:03;6.30;99.90
6210;DHT22;3138;52.550;13.148;2023-11-19T08:27:30;6.40;99.90
6210;DHT22;3138;52.550;13.148;2023-11-19T08:29:59;6.50;99.90
6210;DHT22;3138;52.550;13.148;2023-11-19T08:32:26;6.50;99.90
6210;DHT22;3138;52.550;13.148;2023-11-19T08:34:54;6.50;99.90
6210;DHT22;3138;52.550;13.148;2023-11-19T08:37:21;6.50;99.90
6210;DHT22;3138;52.550;13.148;2023-11-19T08:39:48;6.70;99.90
6210;DHT22;3138;52.550;13.148;2023-11-19T08:42:15;6.90;99.90
6210;DHT22;3138;52.550;13.148;2023-11-19T08:44:42;7.00;99.90
6210;DHT22;3138;52.550;13.148;2023-11-19T08:47:13;6.90;99.90
6210;DHT22;3138;52.550;13.148;2023-11-19T08:49:41;6.80;99.90
6210;DHT22;3138;52.550;13.148;2023-11-19T08:52:08;6.90;99.90
6210;DHT22;3138;52.550;13.148;2023-11-19T08:54:36;6.90;99.90
6210;DHT22;3138;52.550;13.148;2023-11-19T08:57:03;7.00;99.90
6210;DHT22;3138;52.550;13.148;2023-11-19T08:59:30;7.10;99.90
6210;DHT22;3138;52.550;13.148;2023-11-19T09:01:56;7.10;99.90
6210;DHT22;3138;52.550;13.148;2023-11-19T09:04:25;7.20;99.90
6210;DHT22;3138;52.550;13.148;2023-11-19T09:06:51;7.40;99.90
6210;DHT22;3138;52.550;13.148;2023-11-19T09:09:18;7.40;99.90
6210;DHT22;3138;52.550;13.148;2023-11-19T09:11:45;7.50;99.90
6210;DHT22;3138;52.550;13.148;2023-11-19T09:14:12;7.50;99.90
6210;DHT22;3138;52.550;13.148;2023-11-19T09:16:39;7.60;99.90
6210;DHT22;3138;52.550;13.148;2023-11-19T09:19:05;7.70;99.90
6210;DHT22;3138;52.550;13.148;2023-11-19T09:21:34;7.80;99.90
6210;DHT22;3138;52.550;13.148;2023-11-19T09:24:04;8.00;99.90
6210;DHT22;3138;52.550;13.148;2023-11-19T09:26:33;8.00;99.90
6210;DHT22;3138;52.550;13.148;2023-11-19T09:28:59;8.10;99.90
6210;DHT22;3138;52.550;13.148;2023-11-19T09:31:28;8.20;99.90
6210;DHT22;3138;52.550;13.148;2023-11-19T09:33:55;8.10;99.90
6210;DHT22;3138;52.550;13.148;2023-11-19T09:36:22;8.10;99.90
6210;DHT22;3138;52.550;13.148;2023-11-19T09:38:51;8.20;99.90
6210;DHT22;3138;52.550;13.148;2023-11-19T09:41:17;8.40;99.90
6210;DHT22;3138;52.550;13.148;2023-11-19T09:43:45;8.60;99.90
6210;DHT22;3138;52.550;13.148;2023-11-19T09:46:14;8.70;99.90
6210;DHT22;3138;52.550;13.148;2023-11-19T09:48:42;8.80;99.90
6210;DHT22;3138;52.550;13.148;2023-11-19T09:51:10;8.90;99.90
6210;DHT22;3138;52.550;13.148;2023-11-19T09:53:38;8.90;99.90
6210;DHT22;3138;52.550;13.148;2023-11-19T09:56:07;9.00;99.90
6210;DHT22;3138;52.550;13.148;2023-11-19T09:58:35;9.00;99.90
6210;DHT22;3138;52.550;13.148;2023-11-19T10:01:02;9.10;99.90
6210;DHT22;3138;52.550;13.148;2023-11-19T10:03:33;9.20;99.90
6210;DHT22;3138;52.550;13.148;2023-11-19T10:06:01;9.20;99.90
6210;DHT22;3138;52.550;13.148;2023-11-19T10:08:29;9.20;99.90
6210;DHT22;3138;52.550;13.148;2023-11-19T10:10:56;9.20;99.90
6210;DHT22;3138;52.550;13.148;2023-11-19T10:13:28;9.20;99.90
6210;DHT22;3138;52.550;13.148;2023-11-19T10:15:56;9.30;99.90
6210;DHT22;3138;52.550;13.148;2023-11-19T10:18:25;9.50;99.90
6210;DHT22;3138;52.550;13.148;2023-11-19T10:20:52;9.70;99.90
6210;DHT22;3138;52.550;13.148;2023-11-19T10:23:20;9.80;99.90
6210;DHT22;3138;52.550;13.148;2023-11-19T10:25:47;10.00;99.90
6210;DHT22;3138;52.550;13.148;2023-11-19T10:28:15;10.30;99.90
6210;DHT22;3138;52.550;13.148;2023-11-19T10:30:44;10.50;99.90
6210;DHT22;3138;52.550;13.148;2023-11-19T10:33:12;10.60;99.90
6210;DHT22;3138;52.550;13.148;2023-11-19T10:35:51;10.70;99.90
6210;DHT22;3138;52.550;13.148;2023-11-19T10:38:19;10.80;99.90
6210;DHT22;3138;52.550;13.148;2023-11-19T10:40:46;10.90;99.90
6210;DHT22;3138;52.550;13.148;2023-11-19T10:43:13;11.00;99.90
6210;DHT22;3138;52.550;13.148;2023-11-19T10:45:40;11.00;99.90
6210;DHT22;3138;52.550;13.148;2023-11-19T10:48:09;10.90;99.90
6210;DHT22;3138;52.550;13.148;2023-11-19T10:50:37;10.90;99.90
6210;DHT22;3138;52.550;13.148;2023-11-19T10:53:05;10.80;99.90
6210;DHT22;3138;52.550;13.148;2023-11-19T10:55:32;10.80;99.90
6210;DHT22;3138;52.550;13.148;2023-11-19T10:58:02;10.80;99.90
6210;DHT22;3138;52.550;13.148;2023-11-19T11:00:35;10.90;99.90
6210;DHT22;3138;52.550;13.148;2023-11-19T11:03:11;10.80;99.90
6210;DHT22;3138;52.550;13.148;2023-11-19T11:05:41;10.90;99.90
6210;DHT22;3138;52.550;13.148;2023-11-19T11:08:08;11.00;99.90
6210;DHT22;3138;52.550;13.148;2023-11-19T11:10:39;11.00;99.90
6210;DHT22;3138;52.550;13.148;2023-11-19T11:13:09;11.10;99.90
6210;DHT22;3138;52.550;13.148;2023-11-19T11:15:37;11.20;99.90
6210;DHT22;3138;52.550;13.148;2023-11-19T11:18:08;11.40;99.90
6210;DHT22;3138;52.550;13.148;2023-11-19T11:20:36;11.40;99.90
6210;DHT22;3138;52.550;13.148;2023-11-19T11:23:25;11.50;99.90
6210;DHT22;3138;52.550;13.148;2023-11-19T11:26:09;11.70;99.90
6210;DHT22;3138;52.550;13.148;2023-11-19T11:28:46;11.90;99.90
6210;DHT22;3138;52.550;13.148;2023-11-19T11:31:29;12.10;99.90
6210;DHT22;3138;52.550;13.148;2023-11-19T11:34:12;12.10;99.90
6210;DHT22;3138;52.550;13.148;2023-11-19T11:36:50;12.30;99.90
6210;DHT22;3138;52.550;13.148;2023-11-19T11:39:22;12.40;99.90
6210;DHT22;3138;52.550;13.148;2023-11-19T11:42:34;12.30;99.90
6210;DHT22;3138;52.550;13.148;2023-11-19T11:45:03;12.30;99.90
6210;DHT22;3138;52.550;13.148;2023-11-19T11:50:48;12.10;99.90
6210;DHT22;3138;52.550;13.148;2023-11-19T11:53:21;12.00;99.90
6210;DHT22;3138;52.550;13.148;2023-11-19T11:55:57;11.90;99.90
6210;DHT22;3138;52.550;13.148;2023-11-19T11:58:27;11.90;99.90
6210;DHT22;3138;52.550;13.148;2023-11-19T12:00:57;12.00;99.90
6210;DHT22;3138;52.550;13.148;2023-11-19T12:03:27;12.00;99.90
6210;DHT22;3138;52.550;13.148;2023-11-19T12:05:54;12.00;99.90
6210;DHT22;3138;52.550;13.148;2023-11-19T12:08:26;11.90;99.90
6210;DHT22;3138;52.550;13.148;2023-11-19T12:10:54;11.90;99.90
6210;DHT22;3138;52.550;13.148;2023-11-19T12:16:09;11.80;99.90
6210;DHT22;3138;52.550;13.148;2023-11-19T12:18:39;11.70;99.90
6210;DHT22;3138;52.550;13.148;2023-11-19T12:21:06;11.60;99.90
6210;DHT22;3138;52.550;13.148;2023-11-19T12:23:44;11.50;99.90
6210;DHT22;3138;52.550;13.148;2023-11-19T12:26:35;11.50;99.90
6210;DHT22;3138;52.550;13.148;2023-11-19T12:29:02;11.40;99.90
6210;DHT22;3138;52.550;13.148;2023-11-19T12:31:32;11.30;99.90
6210;DHT22;3138;52.550;13.148;2023-11-19T12:34:08;11.20;99.90
6210;DHT22;3138;52.550;13.148;2023-11-19T12:36:41;11.20;99.90
6210;DHT22;3138;52.550;13.148;2023-11-19T12:39:10;11.10;99.90
6210;DHT22;3138;52.550;13.148;2023-11-19T12:41:52;11.20;99.90
6210;DHT22;3138;52.550;13.148;2023-11-19T12:44:20;11.30;99.90
6210;DHT22;3138;52.550;13.148;2023-11-19T12:46:58;11.40;99.90
6210;DHT22;3138;52.550;13.148;2023-11-19T12:49:25;11.30;99.90
6210;DHT22;3138;52.550;13.148;2023-11-19T12:51:52;11.30;99.90
6210;DHT22;3138;52.550;13.148;2023-11-19T12:54:31;11.20;99.90
6210;DHT22;3138;52.550;13.148;2023-11-19T12:56:57;11.20;99.90
6210;DHT22;3138;52.550;13.148;2023-11-19T12:59:24;11.20;99.90
6210;DHT22;3138;52.550;13.148;2023-11-19T13:01:55;11.20;99.90
6210;DHT22;3138;52.550;13.148;2023-11-19T13:04:23;11.20;99.90
6210;DHT22;3138;52.550;13.148;2023-11-19T13:06:50;11.20;99.90
6210;DHT22;3138;52.550;13.148;2023-11-19T13:09:26;11.30;99.90
6210;DHT22;3138;52.550;13.148;2023-11-19T13:11:55;11.30;99.90
6210;DHT22;3138;52.550;13.148;2023-11-19T13:14:23;11.30;99.90
6210;DHT22;3138;52.550;13.148;2023-11-19T13:16:50;11.30;99.90
6210;DHT22;3138;52.550;13.148;2023-11-19T13:19:19;11.20;99.90
6210;DHT22;3138;52.550;13.148;2023-11-19T13:21:46;11.10;99.90
6210;DHT22;3138;52.550;13.148;2023-11-19T13:24:14;11.10;99.90
6210;DHT22;3138;52.550;13.148;2023-11-19T13:26:42;11.20;99.90
6210;DHT22;3138;52.550;13.148;2023-11-19T13:29:09;11.20;99.90
6210;DHT22;3138;52.550;13.148;2023-11-19T13:31:36;11.20;99.90
6210;DHT22;3138;52.550;13.148;2023-11-19T13:34:06;11.30;99.90
6210;DHT22;3138;52.550;13.148;2023-11-19T13:36:33;11.30;99.90
6210;DHT22;3138;52.550;13.148;2023-11-19T13:39:00;11.30;99.90
6210;DHT22;3138;52.550;13.148;2023-11-19T13:41:28;11.30;99.90
6210;DHT22;3138;52.550;13.148;2023-11-19T13:43:56;11.30;99.90
6210;DHT22;3138;52.550;13.148;2023-11-19T13:46:24;11.30;99.90
6210;DHT22;3138;52.550;13.148;2023-11-19T13:48:51;11.20;99.90
6210;DHT22;3138;52.550;13.148;2023-11-19T13:51:17;11.30;99.90
6210;DHT22;3138;52.550;13.148;2023-11-19T13:53:44;11.30;99.90
6210;DHT22;3138;52.550;13.148;2023-11-19T13:56:11;11.30;99.90
6210;DHT22;3138;52.550;13.148;2023-11-19T13:58:38;11.30;99.90
6210;DHT22;3138;52.550;13.148;2023-11-19T14:01:07;11.20;99.90
6210;DHT22;3138;52.550;13.148;2023-11-19T14:03:33;11.20;99.90
6210;DHT22;3138;52.550;13.148;2023-11-19T14:06:00;11.10;99.90
6210;DHT22;3138;52.550;13.148;2023-11-19T14:08:28;11.10;99.90
6210;DHT22;3138;52.550;13.148;2023-11-19T14:10:54;11.10;99.90
6210;DHT22;3138;52.550;13.148;2023-11-19T14:13:22;11.10;99.90
6210;DHT22;3138;52.550;13.148;2023-11-19T14:15:49;11.10;99.90
6210;DHT22;3138;52.550;13.148;2023-11-19T14:18:18;11.10;99.90
6210;DHT22;3138;52.550;13.148;2023-11-19T14:20:44;11.10;99.90
6210;DHT22;3138;52.550;13.148;2023-11-19T14:23:11;11.10;99.90
6210;DHT22;3138;52.550;13.148;2023-11-19T14:25:38;11.10;99.90
6210;DHT22;3138;52.550;13.148;2023-11-19T14:28:05;11.10;99.90
6210;DHT22;3138;52.550;13.148;2023-11-19T14:30:33;11.10;99.90
6210;DHT22;3138;52.550;13.148;2023-11-19T14:33:00;11.10;99.90
6210;DHT22;3138;52.550;13.148;2023-11-19T14:35:28;11.00;99.90
6210;DHT22;3138;52.550;13.148;2023-11-19T14:37:55;11.00;99.90
6210;DHT22;3138;52.550;13.148;2023-11-19T14:40:25;11.00;99.90
6210;DHT22;3138;52.550;13.148;2023-11-19T14:42:52;11.00;99.90
6210;DHT22;3138;52.550;13.148;2023-11-19T14:45:19;11.00;99.90
6210;DHT22;3138;52.550;13.148;2023-11-19T14:47:46;11.00;99.90
6210;DHT22;3138;52.550;13.148;2023-11-19T14:50:12;10.90;99.90
6210;DHT22;3138;52.550;13.148;2023-11-19T14:52:41;10.90;99.90
6210;DHT22;3138;52.550;13.148;2023-11-19T14:55:08;10.90;99.90
6210;DHT22;3138;52.550;13.148;2023-11-19T14:57:36;10.90;99.90
6210;DHT22;3138;52.550;13.148;2023-11-19T15:00:05;10.90;99.90
6210;DHT22;3138;52.550;13.148;2023-11-19T15:02:39;10.90;99.90
6210;DHT22;3138;52.550;13.148;2023-11-19T15:05:06;10.90;99.90
6210;DHT22;3138;52.550;13.148;2023-11-19T15:07:35;10.90;99.90
6210;DHT22;3138;52.550;13.148;2023-11-19T15:10:04;10.90;99.90
6210;DHT22;3138;52.550;13.148;2023-11-19T15:12:34;10.80;99.90
6210;DHT22;3138;52.550;13.148;2023-11-19T15:15:06;10.80;99.90
6210;DHT22;3138;52.550;13.148;2023-11-19T15:17:33;10.80;99.90
6210;DHT22;3138;52.550;13.148;2023-11-19T15:20:01;10.80;99.90
6210;DHT22;3138;52.550;13.148;2023-11-19T15:22:28;10.80;99.90
6210;DHT22;3138;52.550;13.148;2023-11-19T15:24:55;10.80;99.90
6210;DHT22;3138;52.550;13.148;2023-11-19T15:27:23;10.70;99.90
6210;DHT22;3138;52.550;13.148;2023-11-19T15:29:50;10.60;99.90
6210;DHT22;3138;52.550;13.148;2023-11-19T15:32:18;10.60;99.90
6210;DHT22;3138;52.550;13.148;2023-11-19T15:34:44;10.70;99.90
6210;DHT22;3138;52.550;13.148;2023-11-19T15:37:11;10.60;99.90
6210;DHT22;3138;52.550;13.148;2023-11-19T15:39:39;10.60;99.90
6210;DHT22;3138;52.550;13.148;2023-11-19T15:42:06;10.50;99.90
6210;DHT22;3138;52.550;13.148;2023-11-19T15:44:37;10.50;99.90
6210;DHT22;3138;52.550;13.148;2023-11-19T15:47:04;10.50;99.90
6210;DHT22;3138;52.550;13.148;2023-11-19T15:49:31;10.50;99.90
6210;DHT22;3138;52.550;13.148;2023-11-19T15:51:58;10.50;99.90
6210;DHT22;3138;52.550;13.148;2023-11-19T15:54:25;10.40;99.90
6210;DHT22;3138;52.550;13.148;2023-11-19T15:56:52;10.50;99.90
6210;DHT22;3138;52.550;13.148;2023-11-19T15:59:19;10.40;99.90
6210;DHT22;3138;52.550;13.148;2023-11-19T16:01:47;10.50;99.90
6210;DHT22;3138;52.550;13.148;2023-11-19T16:04:14;10.50;99.90
6210;DHT22;3138;52.550;13.148;2023-11-19T16:06:41;10.50;99.90
6210;DHT22;3138;52.550;13.148;2023-11-19T16:09:08;10.50;99.90
6210;DHT22;3138;52.550;13.148;2023-11-19T16:11:40;10.50;99.90